Time;durP1;ratioP1;P1;durP2;ratioP2;P2;SDS_P1;SDS_P2;PMS_P1;PMS_P2;Temp;Humidity;BMP_temperature;BMP_pressure;BME280_temperature;BME280_humidity;BME280_pressure;Samples;Min_cycle;Max_cycle;Signal;HPM_P1;HPM_P2
2022/07/25 00:01:40;;;;;;;5.28;3.13;;;21.60;99.90;;;;;;5014343;28;20042;-74
2022/07/25 00:04:07;;;;;;;4.30;3.58;;;21.60;99.90;;;;;;4996735;28;20398;-74
2022/07/25 00:06:34;;;;;;;4.40;3.47;;;21.60;99.90;;;;;;5013903;28;20066;-74
2022/07/25 00:09:00;;;;;;;4.47;3.65;;;21.70;99.90;;;;;;5014134;28;20056;-74
2022/07/25 00:11:26;;;;;;;4.88;3.40;;;21.70;99.90;;;;;;5014277;28;20046;-74
2022/07/25 00:13:51;;;;;;;5.28;3.78;;;21.70;99.90;;;;;;4996995;28;20049;-74
2022/07/25 00:16:17;;;;;;;5.40;3.50;;;21.70;99.90;;;;;;5014229;28;20045;-74
2022/07/25 00:18:43;;;;;;;5.70;3.78;;;21.70;99.90;;;;;;5014212;28;20133;-73
2022/07/25 00:21:09;;;;;;;4.57;4.10;;;21.70;99.90;;;;;;5014133;28;20046;-73
2022/07/25 00:23:35;;;;;;;4.75;4.25;;;21.80;99.90;;;;;;5014059;28;20092;-73
2022/07/25 00:26:00;;;;;;;4.72;4.13;;;21.90;99.90;;;;;;5013993;28;20050;-73
2022/07/25 00:28:26;;;;;;;4.75;3.88;;;21.90;99.90;;;;;;5013961;28;20423;-73
2022/07/25 00:30:52;;;;;;;7.00;4.05;;;22.00;99.90;;;;;;4996942;28;20050;-73
2022/07/25 00:33:18;;;;;;;4.88;4.30;;;22.00;99.90;;;;;;5014560;28;20042;-73
2022/07/25 00:35:43;;;;;;;4.63;4.13;;;22.00;99.90;;;;;;4996351;28;20487;-75
2022/07/25 00:38:09;;;;;;;4.50;3.92;;;22.10;99.90;;;;;;5014354;28;20137;-74
2022/07/25 00:40:35;;;;;;;5.07;4.38;;;22.10;99.90;;;;;;5014305;28;20049;-74
2022/07/25 00:43:00;;;;;;;4.97;4.13;;;22.20;99.90;;;;;;5013709;28;20454;-73
2022/07/25 00:45:26;;;;;;;5.28;4.47;;;22.20;99.90;;;;;;5013504;28;20042;-75
2022/07/25 00:47:52;;;;;;;5.20;4.28;;;22.20;99.90;;;;;;4996073;28;20053;-73
2022/07/25 00:50:18;;;;;;;5.85;4.40;;;22.30;99.90;;;;;;4996184;28;20049;-74
2022/07/25 00:52:44;;;;;;;4.40;3.67;;;22.30;99.90;;;;;;5013439;28;20121;-74
2022/07/25 00:55:11;;;;;;;4.95;4.18;;;22.40;99.90;;;;;;5014299;28;20038;-73
2022/07/25 00:57:37;;;;;;;5.18;4.32;;;22.40;99.90;;;;;;5014125;28;20107;-73
2022/07/25 01:00:09;;;;;;;5.95;4.63;;;22.40;99.90;;;;;;5013575;28;20057;-73
2022/07/25 01:02:35;;;;;;;6.00;4.68;;;22.40;99.90;;;;;;5013856;28;20048;-72
2022/07/25 01:05:03;;;;;;;4.57;4.15;;;22.40;99.90;;;;;;4979945;28;20132;-73
2022/07/25 01:07:29;;;;;;;5.07;4.07;;;22.40;99.90;;;;;;5013953;28;20138;-73
2022/07/25 01:09:56;;;;;;;5.70;4.20;;;22.40;99.90;;;;;;4995770;28;20164;-73
2022/07/25 01:12:22;;;;;;;5.07;4.38;;;22.40;99.90;;;;;;5013468;28;20086;-73
2022/07/25 01:14:47;;;;;;;5.72;4.68;;;22.40;99.90;;;;;;5013819;28;20510;-73
2022/07/25 01:17:13;;;;;;;4.70;4.13;;;22.40;99.90;;;;;;4995902;28;20056;-73
2022/07/25 01:19:39;;;;;;;5.00;4.18;;;22.30;99.90;;;;;;5013390;28;20046;-73
2022/07/25 01:22:05;;;;;;;5.50;4.47;;;22.30;99.90;;;;;;5013341;28;20057;-73
2022/07/25 01:24:33;;;;;;;6.68;4.85;;;22.30;99.90;;;;;;5013310;28;20046;-73
2022/07/25 01:26:58;;;;;;;5.50;4.60;;;22.20;99.90;;;;;;5015446;28;20054;-74
2022/07/25 01:29:24;;;;;;;5.40;4.55;;;22.20;99.90;;;;;;5017929;28;20096;-73
2022/07/25 01:31:53;;;;;;;5.28;4.40;;;22.20;99.90;;;;;;5018068;28;20128;-74
2022/07/25 01:34:19;;;;;;;5.53;4.20;;;22.20;99.90;;;;;;5017240;28;20046;-73
2022/07/25 01:36:44;;;;;;;4.90;4.40;;;22.20;99.90;;;;;;5017163;28;20394;-73
2022/07/25 01:39:10;;;;;;;6.15;4.45;;;22.20;99.90;;;;;;5017193;28;20109;-73
2022/07/25 01:41:36;;;;;;;4.90;4.22;;;22.20;99.90;;;;;;5017170;28;20132;-73
2022/07/25 01:44:02;;;;;;;5.82;4.13;;;22.10;99.90;;;;;;5017068;28;20387;-74
2022/07/25 01:46:27;;;;;;;6.68;4.68;;;22.10;99.90;;;;;;5017051;28;20426;-74
2022/07/25 01:48:53;;;;;;;6.75;5.10;;;22.00;99.90;;;;;;5000008;28;20056;-74
2022/07/25 01:51:19;;;;;;;7.15;5.15;;;22.00;99.90;;;;;;5000355;28;20467;-74
2022/07/25 01:53:44;;;;;;;5.80;5.20;;;21.90;99.90;;;;;;5017080;28;20046;-74
2022/07/25 01:56:10;;;;;;;5.90;5.15;;;21.80;99.90;;;;;;5016829;28;20049;-74
2022/07/25 01:58:36;;;;;;;5.93;5.20;;;21.80;99.90;;;;;;5017320;28;20048;-73
2022/07/25 02:01:02;;;;;;;7.03;5.07;;;21.80;99.90;;;;;;5016558;28;20046;-75
2022/07/25 02:03:31;;;;;;;5.97;4.88;;;21.80;99.90;;;;;;5016446;28;20498;-74
2022/07/25 02:06:05;;;;;;;7.30;5.63;;;21.70;99.90;;;;;;5016238;28;20053;-73
2022/07/25 02:08:31;;;;;;;6.10;5.32;;;21.70;99.90;;;;;;5016445;28;20057;-73
2022/07/25 02:10:57;;;;;;;6.00;5.40;;;21.60;99.90;;;;;;4999227;28;20042;-73
2022/07/25 02:13:24;;;;;;;6.55;5.45;;;21.60;99.90;;;;;;5016394;28;20081;-74
2022/07/25 02:15:50;;;;;;;5.72;4.85;;;21.60;99.90;;;;;;5016587;28;20132;-74
2022/07/25 02:18:16;;;;;;;5.80;5.20;;;21.60;99.90;;;;;;5016326;28;20042;-74
2022/07/25 02:20:42;;;;;;;6.20;5.50;;;21.50;99.90;;;;;;4998927;28;20482;-74
2022/07/25 02:23:08;;;;;;;6.18;5.35;;;21.50;99.90;;;;;;5016037;28;20406;-73
2022/07/25 02:25:34;;;;;;;6.13;5.10;;;21.50;99.90;;;;;;5016338;28;20046;-73
2022/07/25 02:28:00;;;;;;;7.45;5.25;;;21.50;99.90;;;;;;5016289;28;20177;-74
2022/07/25 02:30:26;;;;;;;7.63;5.68;;;21.50;99.90;;;;;;5016236;28;20386;-74
2022/07/25 02:32:52;;;;;;;6.63;5.28;;;21.50;99.90;;;;;;5016109;28;20045;-73
2022/07/25 02:35:17;;;;;;;6.15;5.32;;;21.50;99.90;;;;;;4998533;28;20057;-74
2022/07/25 02:37:43;;;;;;;6.85;5.45;;;21.40;99.90;;;;;;5014836;28;20073;-74
2022/07/25 02:40:10;;;;;;;7.13;5.93;;;21.40;99.90;;;;;;5016004;28;20049;-74
2022/07/25 02:42:36;;;;;;;5.80;5.20;;;21.40;99.90;;;;;;5016011;28;20045;-73
2022/07/25 02:45:01;;;;;;;6.45;5.30;;;21.30;99.90;;;;;;5015994;28;20042;-73
2022/07/25 02:47:27;;;;;;;6.38;4.95;;;21.30;99.90;;;;;;4998503;28;20222;-74
2022/07/25 02:49:53;;;;;;;6.53;5.13;;;21.30;99.90;;;;;;5015902;28;20058;-74
2022/07/25 02:52:19;;;;;;;5.70;5.10;;;21.40;99.90;;;;;;5015858;28;20433;-69
2022/07/25 02:54:44;;;;;;;5.90;5.25;;;21.40;99.90;;;;;;5016300;28;20474;-70
2022/07/25 02:57:10;;;;;;;5.40;4.90;;;21.30;99.90;;;;;;5015827;28;20113;-70
2022/07/25 02:59:36;;;;;;;5.72;5.13;;;21.40;99.90;;;;;;5015997;28;20056;-70
2022/07/25 03:02:01;;;;;;;7.40;5.25;;;21.40;99.90;;;;;;4998674;28;20046;-69
2022/07/25 03:04:27;;;;;;;6.03;4.95;;;21.40;99.90;;;;;;4998384;28;20056;-69
2022/07/25 03:06:52;;;;;;;5.88;5.28;;;21.50;99.90;;;;;;5015783;28;20136;-70
2022/07/25 03:09:18;;;;;;;5.53;4.93;;;21.40;99.90;;;;;;4997733;28;20509;-70
2022/07/25 03:11:44;;;;;;;5.95;5.05;;;21.40;99.90;;;;;;5016020;28;20061;-70
2022/07/25 03:14:10;;;;;;;5.72;5.13;;;21.40;99.90;;;;;;4998775;28;20050;-71
2022/07/25 03:16:36;;;;;;;6.03;5.22;;;21.40;99.90;;;;;;5015964;28;20042;-70
2022/07/25 03:19:02;;;;;;;5.57;4.78;;;21.40;99.90;;;;;;5015908;28;20390;-70
2022/07/25 03:21:27;;;;;;;7.03;5.45;;;21.40;99.90;;;;;;5015333;28;20244;-70
2022/07/25 03:23:53;;;;;;;6.22;5.22;;;21.40;99.90;;;;;;5015544;28;20096;-70
2022/07/25 03:26:19;;;;;;;6.45;5.25;;;21.40;99.90;;;;;;5015811;28;20194;-70
2022/07/25 03:28:45;;;;;;;7.05;4.97;;;21.40;99.90;;;;;;5015777;28;20129;-69
2022/07/25 03:31:10;;;;;;;6.18;5.38;;;21.30;99.90;;;;;;5015626;28;20129;-70
2022/07/25 03:33:36;;;;;;;7.03;5.68;;;21.40;99.90;;;;;;4997775;28;20046;-70
2022/07/25 03:36:02;;;;;;;7.70;5.97;;;21.30;99.90;;;;;;4998230;28;20060;-70
2022/07/25 03:38:28;;;;;;;8.02;6.18;;;21.30;99.90;;;;;;5015008;28;20133;-70
2022/07/25 03:40:54;;;;;;;7.32;6.63;;;21.30;99.90;;;;;;5016031;28;20122;-70
2022/07/25 03:43:19;;;;;;;7.53;6.70;;;21.20;99.90;;;;;;5016915;28;20386;-70
2022/07/25 03:45:45;;;;;;;7.68;6.88;;;21.20;99.90;;;;;;5015905;28;20041;-70
2022/07/25 03:48:11;;;;;;;9.48;7.65;;;21.10;99.90;;;;;;5015276;28;20042;-70
2022/07/25 03:50:36;;;;;;;8.63;7.47;;;21.00;99.90;;;;;;5014419;28;20046;-70
2022/07/25 03:53:02;;;;;;;8.52;7.05;;;21.00;99.90;;;;;;5014674;28;20129;-71
2022/07/25 03:55:28;;;;;;;8.63;7.57;;;21.00;99.90;;;;;;4997219;28;20053;-69
2022/07/25 03:57:53;;;;;;;9.07;7.38;;;21.00;99.90;;;;;;5014662;28;20395;-70
2022/07/25 04:00:19;;;;;;;8.48;7.05;;;20.90;99.90;;;;;;5015120;28;20050;-69
2022/07/25 04:02:45;;;;;;;7.50;6.65;;;20.90;99.90;;;;;;5014710;28;20137;-69
2022/07/25 04:05:10;;;;;;;9.75;7.45;;;20.90;99.90;;;;;;5014590;28;20046;-69
2022/07/25 04:07:36;;;;;;;7.95;6.25;;;20.90;99.90;;;;;;4996532;28;20450;-70
2022/07/25 04:10:04;;;;;;;8.20;6.60;;;20.90;99.90;;;;;;5014346;28;20046;-70
2022/07/25 04:12:30;;;;;;;7.82;6.43;;;20.90;99.90;;;;;;5014916;28;20049;-69
2022/07/25 04:14:56;;;;;;;7.13;6.43;;;20.90;99.90;;;;;;5014333;28;20053;-72
2022/07/25 04:17:21;;;;;;;8.63;6.55;;;20.90;99.90;;;;;;4996938;28;20475;-70
2022/07/25 04:19:47;;;;;;;7.60;6.20;;;20.90;99.90;;;;;;4996504;28;20508;-70
2022/07/25 04:22:13;;;;;;;7.88;6.15;;;20.90;99.90;;;;;;5013996;28;20052;-70
2022/07/25 04:24:39;;;;;;;8.13;6.88;;;20.90;99.90;;;;;;5014256;28;20045;-70
2022/07/25 04:27:04;;;;;;;8.10;6.70;;;20.90;99.90;;;;;;5014167;28;20402;-69
2022/07/25 04:29:30;;;;;;;8.40;5.97;;;20.90;99.90;;;;;;5014143;28;20207;-70
2022/07/25 04:31:56;;;;;;;7.40;6.32;;;21.00;99.90;;;;;;5014009;28;20042;-69
2022/07/25 04:34:22;;;;;;;6.57;5.75;;;21.00;99.90;;;;;;4996522;28;20475;-70
2022/07/25 04:36:48;;;;;;;7.57;6.00;;;21.00;99.90;;;;;;5014350;28;20050;-69
2022/07/25 04:39:14;;;;;;;6.22;5.63;;;21.00;99.90;;;;;;5013946;28;20049;-69
2022/07/25 04:41:39;;;;;;;7.95;6.10;;;20.90;99.90;;;;;;5013958;28;20119;-70
2022/07/25 04:44:06;;;;;;;7.18;6.35;;;21.00;99.90;;;;;;5013930;28;20038;-69
2022/07/25 04:46:32;;;;;;;7.13;6.40;;;21.00;99.90;;;;;;5013838;28;20063;-70
2022/07/25 04:48:58;;;;;;;7.43;6.63;;;21.10;99.90;;;;;;5013733;28;20046;-69
2022/07/25 04:51:24;;;;;;;7.90;6.53;;;21.10;99.90;;;;;;5013939;28;20049;-69
2022/07/25 04:53:49;;;;;;;7.68;6.88;;;21.20;99.90;;;;;;4997102;28;20042;-69
2022/07/25 04:56:15;;;;;;;7.25;6.55;;;21.30;99.90;;;;;;5013648;28;20045;-69
2022/07/25 04:58:41;;;;;;;7.38;6.18;;;21.40;99.90;;;;;;5013849;28;20104;-69
2022/07/25 05:01:07;;;;;;;7.28;6.20;;;21.40;99.90;;;;;;5012966;28;20054;-70
2022/07/25 05:03:33;;;;;;;6.68;5.97;;;21.50;99.90;;;;;;5013889;28;20050;-68
2022/07/25 05:05:58;;;;;;;7.00;6.30;;;21.50;99.90;;;;;;5013371;28;20605;-69
2022/07/25 05:08:24;;;;;;;7.25;6.55;;;21.40;99.90;;;;;;5013886;28;20418;-68
2022/07/25 05:10:50;;;;;;;7.50;6.10;;;21.50;99.90;;;;;;4996152;28;20482;-68
2022/07/25 05:13:15;;;;;;;7.68;6.40;;;21.50;99.90;;;;;;5014275;28;20057;-69
2022/07/25 05:15:41;;;;;;;8.30;6.13;;;21.50;99.90;;;;;;5013444;28;20046;-69
2022/07/25 05:18:07;;;;;;;8.57;6.30;;;21.60;99.90;;;;;;5013468;28;20053;-69
2022/07/25 05:20:33;;;;;;;8.13;6.40;;;21.60;99.90;;;;;;5013465;28;20130;-69
2022/07/25 05:22:58;;;;;;;7.90;6.32;;;21.60;99.90;;;;;;5013442;28;20054;-69
2022/07/25 05:25:24;;;;;;;7.68;6.00;;;21.60;99.90;;;;;;5013368;28;20577;-71
2022/07/25 05:27:51;;;;;;;6.53;5.47;;;21.60;99.90;;;;;;4996018;28;20041;-69
2022/07/25 05:30:16;;;;;;;6.93;5.80;;;21.70;99.90;;;;;;5014601;28;20216;-69
2022/07/25 05:32:42;;;;;;;7.00;6.25;;;21.80;99.90;;;;;;4996022;28;20478;-69
2022/07/25 05:35:09;;;;;;;6.55;5.47;;;21.90;99.90;;;;;;4995352;28;20046;-70
2022/07/25 05:37:36;;;;;;;9.00;6.15;;;22.00;99.90;;;;;;5013151;28;20084;-69
2022/07/25 05:40:03;;;;;;;6.90;5.78;;;22.10;99.90;;;;;;5013283;28;20061;-69
2022/07/25 05:42:29;;;;;;;6.82;6.13;;;22.20;99.90;;;;;;5013711;28;20050;-68
2022/07/25 05:44:54;;;;;;;6.35;5.45;;;22.30;99.90;;;;;;4996166;28;20080;-69
2022/07/25 05:47:20;;;;;;;6.30;5.47;;;22.40;99.90;;;;;;4995865;28;20041;-69
2022/07/25 05:49:46;;;;;;;6.38;5.43;;;22.50;99.90;;;;;;5013604;28;20054;-69
2022/07/25 05:52:12;;;;;;;6.65;5.30;;;22.60;99.90;;;;;;5013141;28;20113;-69
2022/07/25 05:54:38;;;;;;;6.88;5.72;;;22.70;99.90;;;;;;5013089;28;20053;-69
2022/07/25 05:57:03;;;;;;;6.82;5.40;;;22.80;99.90;;;;;;5013150;28;20368;-69
2022/07/25 05:59:29;;;;;;;6.00;5.40;;;22.90;99.90;;;;;;4995736;28;20064;-69
2022/07/25 06:01:54;;;;;;;6.65;5.05;;;23.00;99.90;;;;;;5013361;28;20057;-69
2022/07/25 06:04:20;;;;;;;6.30;5.20;;;23.10;99.90;;;;;;4995499;28;20474;-69
2022/07/25 06:06:50;;;;;;;6.35;5.15;;;23.20;99.90;;;;;;5012637;28;20062;-69
2022/07/25 06:09:22;;;;;;;6.25;4.90;;;23.20;99.90;;;;;;4995861;28;20053;-70
2022/07/25 06:11:49;;;;;;;6.18;5.03;;;23.30;99.90;;;;;;4995508;28;20120;-69
2022/07/25 06:14:15;;;;;;;5.35;4.50;;;23.50;99.90;;;;;;5016491;28;20394;-65
2022/07/25 06:16:41;;;;;;;5.90;4.88;;;23.60;99.90;;;;;;4999104;28;20077;-65
2022/07/25 06:19:07;;;;;;;5.88;4.65;;;23.70;99.90;;;;;;5016482;28;20103;-65
2022/07/25 06:21:33;;;;;;;6.00;4.97;;;23.80;99.90;;;;;;5016500;28;20508;-65
2022/07/25 06:23:58;;;;;;;5.75;4.82;;;23.80;99.90;;;;;;5017176;28;20439;-65
2022/07/25 06:26:24;;;;;;;6.03;4.65;;;23.70;99.90;;;;;;5016333;28;20483;-65
2022/07/25 06:28:51;;;;;;;6.43;4.80;;;23.70;99.90;;;;;;5016861;28;20345;-65
2022/07/25 06:31:17;;;;;;;6.18;4.93;;;23.70;99.90;;;;;;4999342;28;20052;-65
2022/07/25 06:33:42;;;;;;;6.20;4.97;;;23.60;99.90;;;;;;5016353;28;20046;-65
2022/07/25 06:36:09;;;;;;;5.60;4.80;;;23.60;99.90;;;;;;5016592;28;20125;-65
2022/07/25 06:38:34;;;;;;;6.07;4.55;;;23.70;99.90;;;;;;4982553;28;20172;-65
2022/07/25 06:41:00;;;;;;;6.07;4.88;;;23.80;99.90;;;;;;5016067;28;20081;-65
2022/07/25 06:43:26;;;;;;;6.63;5.22;;;23.80;99.90;;;;;;5016777;28;20474;-65
2022/07/25 06:45:51;;;;;;;5.50;4.97;;;23.70;99.90;;;;;;5016365;28;20050;-65
2022/07/25 06:48:18;;;;;;;6.50;4.63;;;23.70;99.90;;;;;;5015988;28;20049;-65
2022/07/25 06:50:44;;;;;;;5.72;4.47;;;23.70;99.90;;;;;;5016386;28;20046;-65
2022/07/25 06:53:09;;;;;;;6.65;4.55;;;23.60;99.90;;;;;;5015816;28;20124;-65
2022/07/25 06:55:35;;;;;;;6.57;4.88;;;23.50;99.90;;;;;;5015875;28;20141;-65
2022/07/25 06:58:01;;;;;;;6.22;4.85;;;23.70;99.90;;;;;;5015851;28;20466;-65
2022/07/25 07:00:27;;;;;;;6.20;4.70;;;23.90;99.90;;;;;;5016286;28;20045;-65
2022/07/25 07:02:55;;;;;;;6.20;5.53;;;24.10;99.90;;;;;;5015895;28;20125;-65
2022/07/25 07:05:23;;;;;;;5.85;5.13;;;24.10;99.90;;;;;;4998437;28;20119;-65
2022/07/25 07:07:49;;;;;;;5.75;4.93;;;24.20;99.90;;;;;;5016646;28;20058;-65
2022/07/25 07:10:16;;;;;;;5.80;5.20;;;24.30;99.90;;;;;;5015674;28;20050;-65
2022/07/25 07:12:42;;;;;;;5.55;4.50;;;24.40;99.90;;;;;;5016028;28;20045;-65
2022/07/25 07:15:09;;;;;;;6.97;5.20;;;24.60;99.90;;;;;;5015513;28;20072;-65
2022/07/25 07:17:34;;;;;;;4.97;4.47;;;24.70;99.90;;;;;;5015322;28;20041;-65
2022/07/25 07:20:00;;;;;;;5.70;4.80;;;24.80;99.90;;;;;;4997903;28;20057;-65
2022/07/25 07:22:26;;;;;;;6.78;5.50;;;24.90;99.90;;;;;;5015308;28;20092;-66
2022/07/25 07:24:52;;;;;;;7.65;5.40;;;24.90;99.90;;;;;;4981205;28;20050;-65
2022/07/25 07:27:18;;;;;;;6.53;5.47;;;25.00;99.90;;;;;;4997777;28;20057;-65
2022/07/25 07:29:43;;;;;;;6.63;5.38;;;25.10;99.90;;;;;;4997774;28;20042;-65
2022/07/25 07:32:09;;;;;;;5.80;5.20;;;25.10;99.90;;;;;;5015371;28;20116;-66
2022/07/25 07:34:35;;;;;;;6.53;5.82;;;25.20;99.90;;;;;;5013885;28;20042;-66
2022/07/25 07:37:01;;;;;;;5.93;5.32;;;25.30;99.90;;;;;;4997378;28;20483;-66
2022/07/25 07:39:27;;;;;;;7.20;6.32;;;25.30;99.90;;;;;;5014840;28;20053;-66
2022/07/25 07:41:52;;;;;;;7.07;6.38;;;25.30;99.90;;;;;;4997542;28;20107;-66
2022/07/25 07:44:18;;;;;;;7.18;6.45;;;25.30;99.90;;;;;;5014829;28;20049;-66
2022/07/25 07:46:44;;;;;;;7.45;6.20;;;25.30;99.90;;;;;;5014653;28;20073;-66
2022/07/25 07:49:09;;;;;;;8.95;6.82;;;25.40;99.90;;;;;;5014752;28;20050;-66
2022/07/25 07:51:35;;;;;;;8.02;6.68;;;25.40;99.90;;;;;;5014717;28;20053;-65
2022/07/25 07:56:45;;;;;;;7.80;6.40;;;25.20;99.90;;;;;;5014460;28;20057;-66
2022/07/25 07:59:11;;;;;;;7.82;7.03;;;25.30;99.90;;;;;;5014438;28;20046;-66
2022/07/25 08:01:37;;;;;;;8.05;6.35;;;25.40;99.90;;;;;;5014370;28;20045;-65
2022/07/25 08:04:03;;;;;;;6.05;5.13;;;25.60;99.90;;;;;;5014856;28;20041;-66
2022/07/25 08:06:29;;;;;;;6.85;5.65;;;25.80;99.90;;;;;;5015703;28;20061;-66
2022/07/25 08:08:55;;;;;;;7.63;5.90;;;25.90;99.90;;;;;;5014660;28;20054;-65
2022/07/25 08:11:20;;;;;;;6.60;4.85;;;26.00;99.90;;;;;;5014516;28;20042;-65
2022/07/25 08:13:46;;;;;;;8.80;5.65;;;26.00;99.90;;;;;;5014043;28;20041;-66
2022/07/25 08:16:12;;;;;;;6.22;5.20;;;26.10;99.90;;;;;;4996566;28;20050;-66
2022/07/25 08:18:38;;;;;;;6.95;5.53;;;26.10;99.90;;;;;;5014138;28;20053;-66
2022/07/25 08:21:05;;;;;;;7.40;6.38;;;26.10;99.90;;;;;;5014035;28;20551;-66
2022/07/25 08:23:37;;;;;;;8.07;6.28;;;26.20;99.90;;;;;;5014058;28;20037;-66
2022/07/25 08:26:03;;;;;;;7.68;6.20;;;26.10;99.90;;;;;;4996408;28;20045;-66
2022/07/25 08:28:29;;;;;;;9.90;6.75;;;25.90;99.90;;;;;;5014721;28;20068;-66
2022/07/25 08:30:55;;;;;;;8.07;6.72;;;25.80;99.90;;;;;;5014245;28;20478;-65
2022/07/25 08:33:20;;;;;;;7.07;6.03;;;25.60;99.90;;;;;;4996701;28;20046;-65
2022/07/25 08:35:52;;;;;;;7.40;5.90;;;25.50;99.90;;;;;;5013354;28;20096;-65
2022/07/25 08:38:19;;;;;;;7.25;5.28;;;25.50;99.90;;;;;;5013963;28;20479;-65
2022/07/25 08:40:45;;;;;;;7.57;5.82;;;25.50;99.90;;;;;;5013429;28;20513;-66
2022/07/25 08:43:13;;;;;;;8.63;5.65;;;25.40;99.90;;;;;;4996713;28;20046;-65
2022/07/25 08:45:52;;;;;;;7.20;5.57;;;25.40;99.90;;;;;;5013638;28;20140;-65
2022/07/25 08:48:24;;;;;;;6.82;5.95;;;25.30;99.90;;;;;;5013593;28;20520;-65
2022/07/25 08:50:50;;;;;;;8.45;6.35;;;25.20;99.90;;;;;;5013551;28;20049;-65
2022/07/25 08:53:18;;;;;;;9.68;6.78;;;25.10;99.90;;;;;;5014027;28;20511;-65
2022/07/25 08:55:45;;;;;;;7.30;6.07;;;25.00;99.90;;;;;;5013142;28;20502;-65
2022/07/25 08:58:13;;;;;;;7.53;6.35;;;24.90;99.90;;;;;;5013974;28;20046;-65
2022/07/25 09:00:38;;;;;;;6.03;4.80;;;24.90;99.90;;;;;;5013554;28;20054;-65
2022/07/25 09:03:07;;;;;;;5.43;4.63;;;24.90;99.90;;;;;;5013460;28;20056;-65
2022/07/25 09:05:34;;;;;;;5.55;4.25;;;25.00;99.90;;;;;;5013293;28;20416;-67
2022/07/25 09:08:10;;;;;;;5.47;3.97;;;25.10;99.90;;;;;;4995737;28;20057;-66
2022/07/25 09:10:38;;;;;;;5.55;4.28;;;25.10;99.90;;;;;;5013814;28;20045;-66
2022/07/25 09:13:17;;;;;;;5.82;4.18;;;25.10;99.90;;;;;;5013913;28;20081;-66
2022/07/25 09:15:46;;;;;;;4.70;3.83;;;25.00;99.90;;;;;;5013879;28;20046;-65
2022/07/25 09:18:14;;;;;;;4.78;3.95;;;24.90;99.90;;;;;;4995867;28;20534;-66
2022/07/25 09:20:46;;;;;;;6.38;4.10;;;24.80;99.90;;;;;;5013247;28;20077;-66
2022/07/25 09:23:27;;;;;;;4.45;3.50;;;24.70;99.90;;;;;;5014046;28;20406;-66
2022/07/25 09:26:01;;;;;;;4.82;4.00;;;24.70;99.90;;;;;;5014063;28;20378;-66
2022/07/25 09:28:28;;;;;;;6.07;3.83;;;24.70;99.90;;;;;;4996339;28;20100;-65
2022/07/25 09:30:56;;;;;;;4.43;3.47;;;24.70;99.90;;;;;;5013138;28;20046;-66
2022/07/25 09:33:26;;;;;;;5.72;3.47;;;24.70;99.90;;;;;;5013384;28;20200;-65
2022/07/25 09:35:52;;;;;;;4.18;3.30;;;24.70;99.90;;;;;;5013518;28;20046;-66
2022/07/25 09:38:19;;;;;;;4.72;3.60;;;24.60;99.90;;;;;;4995904;28;20099;-65
2022/07/25 09:41:00;;;;;;;3.85;3.10;;;24.50;99.90;;;;;;5013158;28;20046;-65
2022/07/25 09:43:43;;;;;;;5.15;3.10;;;24.50;99.90;;;;;;5013363;28;20478;-65
2022/07/25 09:46:10;;;;;;;3.90;2.95;;;24.40;99.90;;;;;;5013502;28;20046;-65
2022/07/25 09:48:38;;;;;;;4.25;2.97;;;24.30;99.90;;;;;;5016052;28;20069;-65
2022/07/25 09:51:04;;;;;;;5.40;2.85;;;24.30;99.90;;;;;;4999607;28;20040;-65
2022/07/25 09:53:31;;;;;;;4.35;3.25;;;24.40;99.90;;;;;;5016828;28;20042;-66
2022/07/25 09:55:57;;;;;;;4.80;3.03;;;24.50;99.90;;;;;;5016784;28;20490;-65
2022/07/25 09:58:26;;;;;;;3.78;3.00;;;24.40;99.90;;;;;;5017288;28;20046;-65
2022/07/25 10:01:03;;;;;;;5.15;3.13;;;24.50;99.90;;;;;;5016646;28;20042;-66
2022/07/25 10:03:41;;;;;;;3.80;2.95;;;24.60;99.90;;;;;;5016709;28;20049;-66
2022/07/25 10:06:16;;;;;;;4.63;3.30;;;24.60;99.90;;;;;;5016497;28;20386;-65
2022/07/25 10:08:42;;;;;;;5.53;3.65;;;24.70;99.90;;;;;;4999197;28;20359;-65
2022/07/25 10:11:28;;;;;;;3.72;3.10;;;24.70;99.90;;;;;;5016567;28;20050;-65
2022/07/25 10:13:55;;;;;;;4.07;2.58;;;24.90;99.90;;;;;;5016262;28;20161;-65
2022/07/25 10:16:23;;;;;;;3.90;2.15;;;25.10;99.90;;;;;;5016654;28;20068;-65
2022/07/25 10:18:55;;;;;;;6.10;2.80;;;25.20;99.90;;;;;;5016384;28;20168;-65
2022/07/25 10:21:22;;;;;;;2.80;1.80;;;25.30;99.90;;;;;;5016920;28;20042;-65
2022/07/25 10:23:58;;;;;;;2.28;1.60;;;25.20;99.90;;;;;;5016343;28;20472;-65
2022/07/25 10:26:24;;;;;;;2.80;1.90;;;25.10;99.90;;;;;;5016656;28;20041;-65
2022/07/25 10:28:52;;;;;;;2.35;1.60;;;24.90;99.90;;;;;;5016255;28;20038;-65
2022/07/25 10:31:26;;;;;;;2.80;1.83;;;24.70;99.90;;;;;;5015824;28;20482;-65
2022/07/25 10:33:55;;;;;;;3.47;1.83;;;24.60;99.90;;;;;;5016036;28;20037;-65
2022/07/25 10:36:23;;;;;;;2.92;1.30;;;24.50;99.90;;;;;;4998480;28;20046;-65
2022/07/25 10:38:56;;;;;;;2.13;1.42;;;24.40;99.90;;;;;;5015896;28;20451;-65
2022/07/25 10:41:25;;;;;;;2.50;1.35;;;24.40;99.90;;;;;;4998833;28;20042;-65
2022/07/25 10:43:51;;;;;;;2.78;1.40;;;24.40;99.90;;;;;;5015812;28;20046;-65
2022/07/25 10:46:22;;;;;;;2.40;1.10;;;24.40;99.90;;;;;;5015777;28;20383;-65
2022/07/25 10:49:20;;;;;;;2.53;1.00;;;24.50;99.90;;;;;;5016300;28;20662;-65
2022/07/25 10:51:58;;;;;;;3.60;1.30;;;24.70;99.90;;;;;;5000312;28;20065;-65
2022/07/25 10:54:24;;;;;;;1.98;1.30;;;24.80;99.90;;;;;;5015569;28;20038;-65
2022/07/25 10:56:56;;;;;;;2.17;1.42;;;24.90;99.90;;;;;;5015685;28;20045;-65
2022/07/25 10:59:27;;;;;;;2.50;1.20;;;24.90;99.90;;;;;;5014538;28;20115;-65
2022/07/25 11:01:54;;;;;;;1.63;1.00;;;25.00;99.90;;;;;;4998399;28;20045;-65
2022/07/25 11:04:19;;;;;;;3.13;1.20;;;25.10;99.90;;;;;;5015101;28;20497;-65
2022/07/25 11:06:45;;;;;;;2.78;1.20;;;25.20;99.90;;;;;;5014959;28;20054;-65
2022/07/25 11:09:18;;;;;;;2.80;1.20;;;25.20;99.90;;;;;;5016062;28;20115;-66
2022/07/25 11:11:48;;;;;;;1.65;1.00;;;25.10;99.90;;;;;;5015382;28;20458;-65
2022/07/25 11:14:40;;;;;;;3.15;1.10;;;25.00;99.90;;;;;;5015315;28;20129;-65
2022/07/25 11:17:33;;;;;;;2.30;1.02;;;25.00;99.90;;;;;;4990207;28;20419;-66
2022/07/25 11:20:09;;;;;;;2.30;1.02;;;25.10;99.90;;;;;;5011538;28;20065;-66
2022/07/25 11:22:35;;;;;;;4.07;1.27;;;25.20;99.90;;;;;;5015244;28;20041;-65
2022/07/25 11:25:02;;;;;;;2.00;1.02;;;25.20;99.90;;;;;;5015195;28;20042;-65
2022/07/25 11:27:30;;;;;;;2.17;1.05;;;25.00;99.90;;;;;;5015139;28;20061;-65
2022/07/25 11:30:13;;;;;;;5.00;1.10;;;24.80;99.90;;;;;;5015195;28;20478;-65
2022/07/25 11:32:43;;;;;;;2.67;1.00;;;24.50;99.90;;;;;;5015688;28;20125;-65
2022/07/25 11:35:10;;;;;;;3.33;1.00;;;24.20;99.90;;;;;;5015796;28;20340;-65
2022/07/25 11:37:38;;;;;;;1.83;1.02;;;23.90;99.90;;;;;;5014979;28;20124;-65
2022/07/25 11:40:05;;;;;;;1.95;0.85;;;23.70;99.90;;;;;;5015000;28;20053;-65
2022/07/25 11:42:41;;;;;;;1.60;0.90;;;23.50;99.90;;;;;;5015132;28;20053;-65
2022/07/25 11:45:16;;;;;;;1.48;0.90;;;23.40;99.90;;;;;;5015108;28;20065;-65
2022/07/25 11:47:42;;;;;;;3.03;0.80;;;23.30;99.90;;;;;;5014800;28;20050;-65
2022/07/25 11:50:13;;;;;;;1.70;0.90;;;23.30;99.90;;;;;;5014806;28;20068;-65
2022/07/25 11:52:44;;;;;;;2.67;1.13;;;23.30;99.90;;;;;;5015551;28;20068;-64
2022/07/25 11:55:16;;;;;;;2.15;1.10;;;23.40;99.90;;;;;;5015257;28;20112;-66
2022/07/25 11:57:45;;;;;;;2.00;0.90;;;23.50;99.90;;;;;;5014769;28;20049;-65
2022/07/25 12:00:19;;;;;;;2.25;1.10;;;23.60;99.90;;;;;;5014573;28;20053;-65
2022/07/25 12:02:47;;;;;;;2.33;1.00;;;23.70;99.90;;;;;;5014583;28;20398;-65
2022/07/25 12:05:15;;;;;;;2.97;1.30;;;23.60;99.90;;;;;;5014597;28;20130;-66
2022/07/25 12:07:51;;;;;;;2.70;1.30;;;23.70;99.90;;;;;;4980995;28;20522;-65
2022/07/25 12:10:30;;;;;;;3.28;1.33;;;23.70;99.90;;;;;;5014426;28;20085;-65
2022/07/25 12:12:57;;;;;;;3.15;1.23;;;23.70;99.90;;;;;;5015177;28;20112;-65
2022/07/25 12:15:43;;;;;;;3.25;1.42;;;23.70;99.90;;;;;;4996896;28;20054;-65
2022/07/25 12:18:11;;;;;;;3.03;1.42;;;23.90;99.90;;;;;;5014321;28;20042;-65
2022/07/25 12:20:42;;;;;;;3.30;1.52;;;23.90;99.90;;;;;;4997109;28;20042;-65
2022/07/25 12:23:10;;;;;;;3.30;1.35;;;23.90;99.90;;;;;;5014877;28;20058;-66
2022/07/25 12:25:39;;;;;;;2.67;1.50;;;24.00;99.90;;;;;;4997132;28;20386;-65
2022/07/25 12:28:05;;;;;;;4.13;1.67;;;24.00;99.90;;;;;;5014078;28;20107;-65
2022/07/25 12:30:32;;;;;;;2.80;1.35;;;24.10;99.90;;;;;;5014083;28;20056;-68
2022/07/25 12:32:59;;;;;;;4.90;1.35;;;24.00;99.90;;;;;;5014023;28;20140;-65
2022/07/25 12:35:25;;;;;;;4.13;1.50;;;24.00;99.90;;;;;;5013979;28;20065;-65
2022/07/25 12:37:51;;;;;;;2.35;1.60;;;24.10;99.90;;;;;;5013889;28;20038;-65
2022/07/25 12:40:18;;;;;;;3.58;1.33;;;24.20;99.90;;;;;;5014376;28;20415;-65
2022/07/25 12:42:44;;;;;;;4.65;1.48;;;24.30;99.90;;;;;;5014329;28;20050;-65
2022/07/25 12:45:11;;;;;;;2.85;1.40;;;24.40;99.90;;;;;;5014064;28;20387;-66
2022/07/25 12:47:37;;;;;;;4.68;1.42;;;24.30;99.90;;;;;;4996319;28;20054;-66
2022/07/25 12:50:03;;;;;;;3.22;1.30;;;24.20;99.90;;;;;;5013808;28;20088;-66
2022/07/25 12:52:29;;;;;;;4.75;1.70;;;24.10;99.90;;;;;;4996619;28;20127;-66